Flight Track Log - Related Links

Times and Time Zones

All times are in EDT time to prevent confusion due to time zone crossing. See the SKW5516 flight status page for this flight to view local times or setup timezone preferences in your user account.

Time Position Orientation Groundspeed Altitude Reporting Facility
EDT Latitude Longitude Course Direction KTS MPH feet Rate Location/Type
Mon 10:30:27 AM 39.8500 -104.7667 298° West 192 221 6,800  Level Denver TRACON
Mon 10:31:33 AM 39.8833 -104.8500 298° West 253 291 8,700 1,653 Climbing Denver TRACON
Mon 10:32:05 AM 39.9031 -104.8858 306° West 253 291 9,500 1,660 Climbing Denver Center
Mon 10:33:07 AM 39.9431 -104.9836 298° West 283 326 11,300 1,887 Climbing Denver Center
Mon 10:34:09 AM 39.9572 -105.0903 280° West 299 344 13,400 1,935 Climbing Denver Center
Mon 10:35:11 AM 39.9711 -105.2111 279° West 313 360 15,300 1,597 Climbing Denver Center
Mon 10:36:13 AM 39.9833 -105.3300 278° West 331 381 16,700 1,839 Climbing Denver Center
Mon 10:37:15 AM 39.9800 -105.4656 268° West 347 399 19,100 2,032 Climbing Denver Center
Mon 10:38:17 AM 39.9781 -105.5872 269° West 340 391 20,900 1,694 Climbing Denver Center
Mon 10:39:19 AM 39.9742 -105.7106 268° West 339 390 22,600 1,500 Climbing Denver Center
Mon 10:40:21 AM 39.9728 -105.8442 269° West 335 386 24,000 1,403 Climbing Denver Center
Mon 10:41:23 AM 39.9778 -105.9758 273° West 361 415 25,500 1,258 Climbing Denver Center
Mon 10:42:25 AM 39.9872 -106.1089 275° West 369 425 26,600 1,113 Climbing Denver Center
Mon 10:43:27 AM 40.0406 -106.2317 300° West 387 445 27,800 1,113 Climbing Denver Center
Mon 10:44:29 AM 40.0931 -106.3567 299° West 393 452 28,900 1,016 Climbing Denver Center
Mon 10:45:31 AM 40.1450 -106.4842 298° West 397 457 29,900 1,016 Climbing Denver Center
Mon 10:46:33 AM 40.2058 -106.6317 298° West 408 470 31,000 1,065 Climbing Denver Center
Mon 10:47:35 AM 40.2675 -106.7797 299° West 418 481 32,100 1,113 Climbing Denver Center
Mon 10:48:37 AM 40.3197 -106.9078 298° West 413 475 33,300 1,210 Climbing Denver Center
Mon 10:49:39 AM 40.3792 -107.0539 298° West 407 468 34,600 1,065 Climbing Denver Center
Mon 10:50:41 AM 40.4289 -107.1783 298° West 403 464 35,500 677 Climbing Denver Center
Mon 10:51:43 AM 40.4875 -107.3239 298° West 404 465 36,000 484 Climbing Denver Center
Mon 10:52:45 AM 40.5381 -107.4514 298° West 407 468 36,500 528 Climbing Denver Center
Mon 10:53:48 AM 40.5994 -107.6039 298° West 415 478 37,100 480 Climbing Denver Center
Mon 10:54:50 AM 40.6525 -107.7350 298° West 420 483 37,500 435 Climbing Denver Center
Mon 10:55:52 AM 40.7139 -107.8892 298° West 424 488 38,000 242 Climbing Denver Center
Mon 10:56:54 AM 40.7669 -108.0217 298° West 424 488 38,000  Level Denver Center
Mon 10:57:56 AM 40.8256 -108.1722 297° West 416 479 38,000  Level Denver Center
Mon 10:58:58 AM 40.8758 -108.3014 297° West 414 476 38,000  Level Denver Center
Mon 10:59:41 AM 40.9078 -108.3875 296° West 409 471 38,000  Level Salt Center
Mon 11:00:43 AM 40.9656 -108.5344 298° West 403 464 38,000  Level Salt Center
Mon 11:02:04 AM 41.0317 -108.7061 297° West 412 474 38,000  Level Denver Center
Mon 11:03:06 AM 41.0908 -108.8619 297° West 421 484 38,000  Level Denver Center
Mon 11:03:49 AM 41.1247 -108.9517 297° West 424 488 38,000  Level Salt Center
Mon 11:04:51 AM 41.1847 -109.1108 297° West 428 493 38,000  Level Salt Center
Mon 11:05:53 AM 41.2367 -109.2497 296° West 433 498 38,000  Level Salt Center
Mon 11:06:55 AM 41.2881 -109.3886 296° West 432 497 38,000  Level Salt Center
Mon 11:07:57 AM 41.3483 -109.5478 297° West 428 493 38,000  Level Salt Center
Mon 11:08:59 AM 41.3989 -109.6833 296° West 426 490 38,000  Level Salt Center
Mon 11:10:01 AM 41.4575 -109.8400 297° West 424 488 38,000  Level Salt Center
Mon 11:11:03 AM 41.5067 -109.9731 296° West 420 483 38,000  Level Salt Center
Mon 11:12:04 AM 41.5639 -110.1300 296° West 420 483 38,000  Level Salt Center
Mon 11:13:06 AM 41.6133 -110.2639 296° West 421 484 38,000  Level Salt Center
Mon 11:14:08 AM 41.6706 -110.4225 296° West 423 487 38,000  Level Salt Center
Mon 11:15:10 AM 41.7192 -110.5589 296° West 424 488 38,000  Level Salt Center
Mon 11:16:12 AM 41.7758 -110.7181 296° West 424 488 38,000  Level Salt Center
Mon 11:17:15 AM 41.8261 -110.8553 296° West 426 490 38,000  Level Salt Center
Mon 11:18:17 AM 41.8767 -110.9983 295° West 430 495 38,000  Level Salt Center
Mon 11:19:19 AM 41.9272 -111.1433 295° West 432 497 38,000  Level Salt Center
Mon 11:20:21 AM 41.9783 -111.2883 295° West 432 497 38,000  Level Salt Center
Mon 11:21:23 AM 42.0397 -111.4603 296° West 427 491 38,000  Level Salt Center
Mon 11:22:25 AM 42.0906 -111.6056 295° West 430 495 38,000  Level Salt Center
Mon 11:23:27 AM 42.1408 -111.7519 295° West 432 497 38,000  Level Salt Center
Mon 11:24:29 AM 42.1917 -111.9000 295° West 436 502 38,000  Level Salt Center
Mon 11:25:31 AM 42.2411 -112.0478 294° West 436 502 38,000  Level Salt Center
Mon 11:26:33 AM 42.3025 -112.2253 295° West 437 503 38,000  Level Salt Center
Mon 11:27:35 AM 42.3528 -112.3725 295° West 435 501 38,000  Level Salt Center
Mon 11:28:37 AM 42.4036 -112.5192 295° West 433 498 38,000  Level Salt Center
Mon 11:29:39 AM 42.4522 -112.6658 294° West 429 494 38,000  Level Salt Center
Mon 11:30:41 AM 42.5003 -112.8125 294° West 428 493 38,000  Level Salt Center
Mon 11:31:43 AM 42.5492 -112.9544 295° West 418 481 38,000  Level Salt Center
Mon 11:32:45 AM 42.6047 -113.1261 294° West 417 480 38,000  Level Salt Center
Mon 11:33:47 AM 42.6511 -113.2686 294° West 415 478 38,000  Level Salt Center
Mon 11:34:49 AM 42.7008 -113.4214 294° West 416 479 38,000  Level Salt Center
Mon 11:35:51 AM 42.7467 -113.5594 294° West 417 480 38,000 -290 Level Salt Center
Mon 11:36:53 AM 42.8000 -113.7250 294° West 425 489 37,400 -1,597 Descending Salt Center
Mon 11:37:55 AM 42.8467 -113.8825 292° West 430 495 34,700 -2,516 Descending Salt Center
Mon 11:38:57 AM 42.8939 -114.0286 294° West 423 487 32,200 -2,419 Descending Salt Center
Mon 11:39:59 AM 42.9400 -114.1756 293° West 425 489 29,700 -1,548 Descending Salt Center
Mon 11:41:01 AM 42.9886 -114.3242 294° West 440 506 29,000 -919 Descending Salt Center
Mon 11:42:03 AM 43.0436 -114.4981 293° West 447 514 27,800 -1,790 Descending Salt Center
Mon 11:43:05 AM 43.0897 -114.6442 293° West 434 499 25,300 -2,565 Descending Salt Center
Mon 11:44:07 AM 43.1408 -114.8094 293° West 419 482 22,500 -2,565 Descending Salt Center
Mon 11:45:09 AM 43.1842 -114.9547 292° West 415 478 20,000 -2,516 Descending Salt Center
Mon 11:46:11 AM 43.2308 -115.1058 293° West 412 474 17,300 -2,613 Descending Salt Center
Mon 11:47:13 AM 43.2756 -115.2522 293° West 401 461 14,600 -2,032 Descending Salt Center
Mon 11:48:15 AM 43.3175 -115.3914 293° West 380 437 13,100 -1,258 Descending Salt Center
Mon 11:49:17 AM 43.3592 -115.5311 292° West 380 437 12,000 -1,113 Descending Salt Center
Mon 11:50:19 AM 43.3922 -115.6444 292° West 328 377 10,800 -1,258 Descending Salt Center
Mon 11:51:21 AM 43.4211 -115.7542 290° West 293 337 9,400 -1,392 Descending Salt Center
Mon 11:52:24 AM 43.4475 -115.8561 290° West 274 315 7,900 -1,452 Descending Salt Center
Mon 11:53:25 AM 43.4747 -115.9542 291° West 265 305 6,400 -878 Descending Salt Center
Mon 11:54:27 AM 43.5022 -116.0411 294° West 237 273 6,100 -919 Descending Salt Center
Mon 11:55:29 AM 43.5283 -116.1161 296° West 212 244 4,500 -1,161 Descending Salt Center
Mon 11:56:31 AM 43.5478 -116.1708 296° West 176 203 3,700 -774 Descending Salt Center
Mon 11:58:00 AM 43.5500 -116.2167 289° West  Level FlightAware
Mon 12:05:00 PM 43.5644 -116.2229 289° West  Level Estimated
Mon 12:06:00 PM 43.5644 -116.2229 289° West  Level Estimated

Login

Don't have an account? Register now (free) for customized features, flight alerts, and more!